Time;durP1;ratioP1;P1;durP2;ratioP2;P2;SDS_P1;SDS_P2;PMS_P1;PMS_P2;Temp;Humidity;BMP_temperature;BMP_pressure;BME280_temperature;BME280_humidity;BME280_pressure;Samples;Min_cycle;Max_cycle;Signal;HPM_P1;HPM_P2
2021/12/12 00:01:14;;;;;;;29.63;21.70;;;7.00;73.90;;;;;;5052370;28;20040;-80
2021/12/12 00:03:47;;;;;;;29.90;21.00;;;7.10;73.90;;;;;;5054267;28;20032;-78
2021/12/12 00:06:21;;;;;;;27.88;19.63;;;7.20;73.50;;;;;;5061289;28;20025;-78
2021/12/12 00:08:49;;;;;;;31.83;21.00;;;7.20;73.30;;;;;;5062792;28;20033;-78
2021/12/12 00:11:19;;;;;;;29.60;20.75;;;7.20;73.20;;;;;;5053569;28;20029;-78
2021/12/12 00:13:51;;;;;;;30.73;21.25;;;7.10;73.10;;;;;;5062150;28;20086;-77
2021/12/12 00:16:16;;;;;;;30.17;22.05;;;7.10;73.30;;;;;;5053046;28;20021;-78
2021/12/12 00:18:43;;;;;;;30.75;21.38;;;7.10;73.50;;;;;;5055844;28;20021;-78
2021/12/12 00:21:11;;;;;;;31.77;21.67;;;7.10;73.60;;;;;;5063711;28;20059;-78
2021/12/12 00:23:40;;;;;;;33.83;22.02;;;7.10;73.50;;;;;;5056878;28;20040;-78
2021/12/12 00:26:06;;;;;;;29.17;20.05;;;7.10;73.10;;;;;;5058161;28;20511;-79
2021/12/12 00:28:33;;;;;;;34.22;21.75;;;7.10;73.00;;;;;;5062844;28;20044;-81
2021/12/12 00:31:08;;;;;;;29.83;20.73;;;7.00;73.10;;;;;;5070812;28;20024;-80
2021/12/12 00:33:36;;;;;;;31.25;22.90;;;7.00;73.10;;;;;;5047640;28;20477;-80
2021/12/12 00:36:02;;;;;;;35.00;20.63;;;6.90;73.10;;;;;;5052652;28;20025;-80
2021/12/12 00:38:31;;;;;;;32.15;21.83;;;6.80;73.30;;;;;;5063583;28;20031;-80
2021/12/12 00:41:04;;;;;;;29.93;21.77;;;6.80;73.40;;;;;;5069002;28;20070;-80
2021/12/12 00:43:35;;;;;;;30.48;21.67;;;6.80;73.60;;;;;;5068163;28;20052;-80
2021/12/12 00:46:05;;;;;;;32.95;21.85;;;6.90;73.60;;;;;;5054170;28;20453;-80
2021/12/12 00:48:34;;;;;;;30.30;22.90;;;6.80;72.90;;;;;;5058334;28;20077;-80
2021/12/12 00:51:02;;;;;;;31.63;21.92;;;6.80;73.20;;;;;;5061546;28;20108;-80
2021/12/12 00:53:28;;;;;;;33.85;22.20;;;6.70;73.30;;;;;;5058962;28;20082;-80
2021/12/12 00:55:55;;;;;;;40.05;28.55;;;6.70;72.70;;;;;;5066222;28;20481;-80
2021/12/12 00:58:22;;;;;;;31.48;23.25;;;6.60;72.60;;;;;;5052236;28;20111;-79
2021/12/12 01:00:59;;;;;;;29.52;19.88;;;6.30;73.20;;;;;;5051929;28;20373;-79
2021/12/12 01:03:31;;;;;;;34.80;22.75;;;6.10;73.60;;;;;;5057185;28;20036;-79
2021/12/12 01:05:59;;;;;;;32.70;22.48;;;6.10;73.70;;;;;;5054429;28;20041;-79
2021/12/12 01:08:26;;;;;;;31.15;21.38;;;6.00;74.10;;;;;;5052519;28;20037;-79
2021/12/12 01:11:00;;;;;;;35.33;22.88;;;6.00;74.10;;;;;;5053081;28;20074;-79
2021/12/12 01:13:26;;;;;;;32.17;21.25;;;6.10;74.10;;;;;;5058775;28;20148;-79
2021/12/12 01:16:04;;;;;;;33.88;23.92;;;6.10;73.80;;;;;;5055644;28;20024;-79
2021/12/12 01:18:36;;;;;;;34.58;24.08;;;6.20;73.70;;;;;;5055269;28;20029;-78
2021/12/12 01:21:11;;;;;;;34.20;23.70;;;6.30;73.70;;;;;;5053408;28;20045;-80
2021/12/12 01:24:19;;;;;;;39.00;24.48;;;6.30;73.40;;;;;;5050892;28;20029;-80
2021/12/12 01:26:46;;;;;;;34.58;23.30;;;6.30;73.10;;;;;;4985222;28;20038;-80
2021/12/12 01:29:12;;;;;;;36.40;24.73;;;6.40;72.90;;;;;;4989295;28;20054;-80
2021/12/12 01:31:46;;;;;;;33.70;23.25;;;6.40;72.80;;;;;;5009990;28;20037;-80
2021/12/12 01:34:16;;;;;;;34.33;23.58;;;6.40;72.60;;;;;;5052625;28;20500;-80
2021/12/12 01:39:27;;;;;;;37.85;24.70;;;6.30;72.40;;;;;;5054041;28;20525;-80
2021/12/12 01:42:36;;;;;;;37.00;25.08;;;6.20;72.80;;;;;;5072616;28;20097;-80
2021/12/12 01:45:10;;;;;;;37.75;24.83;;;6.20;73.20;;;;;;4996942;28;20410;-81
2021/12/12 01:47:49;;;;;;;32.67;23.75;;;6.20;73.20;;;;;;5001442;28;20049;-80
2021/12/12 01:50:24;;;;;;;36.15;22.92;;;6.20;73.20;;;;;;5034899;28;20142;-80
2021/12/12 01:52:51;;;;;;;35.30;24.67;;;6.20;73.20;;;;;;5051265;28;20109;-81
2021/12/12 01:55:23;;;;;;;34.92;24.40;;;6.20;73.30;;;;;;5059873;28;20021;-80
2021/12/12 01:57:53;;;;;;;34.55;23.48;;;6.30;73.30;;;;;;5056208;28;20393;-80
2021/12/12 02:00:30;;;;;;;34.50;23.17;;;6.30;73.30;;;;;;5065707;28;20369;-83
2021/12/12 02:02:58;;;;;;;35.42;23.67;;;6.30;73.30;;;;;;5059460;28;20129;-83
2021/12/12 02:05:25;;;;;;;35.65;23.92;;;6.30;73.20;;;;;;5069877;28;20069;-82
2021/12/12 02:08:03;;;;;;;32.63;23.05;;;6.40;73.20;;;;;;5062055;28;20025;-82
2021/12/12 02:10:39;;;;;;;34.05;23.33;;;6.40;73.20;;;;;;5055382;28;20084;-82
2021/12/12 02:13:09;;;;;;;30.70;22.13;;;6.40;73.10;;;;;;5056218;28;20033;-82
2021/12/12 02:15:37;;;;;;;34.35;24.08;;;6.40;73.10;;;;;;5058266;28;20033;-82
2021/12/12 02:18:13;;;;;;;36.50;23.98;;;6.40;73.10;;;;;;5057571;28;20017;-82
2021/12/12 02:21:27;;;;;;;35.33;23.38;;;6.40;73.20;;;;;;5066318;28;20036;-82
2021/12/12 02:37:45;;;;;;;32.50;21.55;;;6.40;73.70;;;;;;5057755;28;20113;-83
2021/12/12 02:40:20;;;;;;;34.63;22.15;;;6.40;73.60;;;;;;5054425;28;20429;-82
2021/12/12 02:42:47;;;;;;;29.52;22.27;;;6.40;73.80;;;;;;5054644;28;20117;-82
2021/12/12 02:45:16;;;;;;;30.77;23.00;;;6.40;74.10;;;;;;5049587;28;20029;-83
2021/12/12 02:47:44;;;;;;;32.50;22.67;;;6.40;74.20;;;;;;5055074;28;20521;-83
2021/12/12 02:50:23;;;;;;;30.45;22.17;;;6.40;74.10;;;;;;5062638;28;20044;-81
2021/12/12 02:52:59;;;;;;;31.98;22.08;;;6.40;74.50;;;;;;5063516;28;20033;-81
2021/12/12 02:55:29;;;;;;;29.77;21.90;;;6.30;73.70;;;;;;5040111;28;20048;-81
2021/12/12 02:57:58;;;;;;;33.38;21.98;;;6.20;73.80;;;;;;5054318;28;20068;-81
2021/12/12 03:00:29;;;;;;;31.48;22.60;;;6.20;73.80;;;;;;5056666;28;20074;-81
2021/12/12 03:03:00;;;;;;;33.85;23.75;;;6.20;73.70;;;;;;5066520;28;20036;-81
2021/12/12 03:05:31;;;;;;;37.85;26.98;;;6.10;73.00;;;;;;5057505;28;20392;-82
2021/12/12 03:07:57;;;;;;;34.80;24.40;;;6.00;73.30;;;;;;5050306;28;20159;-82
2021/12/12 03:10:31;;;;;;;33.60;23.80;;;6.00;73.70;;;;;;5054650;28;20162;-82
2021/12/12 03:12:57;;;;;;;36.95;25.25;;;6.00;73.60;;;;;;5068621;28;20028;-82
2021/12/12 03:15:27;;;;;;;31.08;23.73;;;5.90;73.70;;;;;;5072501;28;20460;-82
2021/12/12 03:17:56;;;;;;;37.57;25.97;;;5.80;73.80;;;;;;5054093;28;20073;-83
2021/12/12 03:20:35;;;;;;;40.80;26.90;;;5.70;74.00;;;;;;5060742;28;20275;-83
2021/12/12 03:23:04;;;;;;;35.63;25.45;;;5.60;74.20;;;;;;5054586;28;20029;-81
2021/12/12 03:25:33;;;;;;;50.65;29.15;;;5.70;74.50;;;;;;5070455;28;20101;-81
2021/12/12 03:28:00;;;;;;;40.85;28.05;;;5.70;74.30;;;;;;5064119;28;20020;-81
2021/12/12 03:30:26;;;;;;;40.38;26.90;;;5.80;74.30;;;;;;5067346;28;20488;-80
2021/12/12 03:32:52;;;;;;;40.75;28.42;;;5.80;74.40;;;;;;5053130;28;20049;-80
2021/12/12 03:35:18;;;;;;;42.40;29.42;;;5.90;74.20;;;;;;5060301;28;20102;-80
2021/12/12 03:37:44;;;;;;;45.00;29.67;;;5.90;74.00;;;;;;5057756;28;20025;-80
2021/12/12 03:40:18;;;;;;;42.97;29.25;;;5.90;73.70;;;;;;5064015;28;20602;-80
2021/12/12 03:42:46;;;;;;;44.20;30.30;;;5.90;73.60;;;;;;5062160;28;20040;-80
2021/12/12 03:45:13;;;;;;;41.25;28.70;;;5.90;73.50;;;;;;5056925;28;20032;-80
2021/12/12 03:47:44;;;;;;;43.70;28.33;;;5.90;73.30;;;;;;5057059;28;20122;-80
2021/12/12 03:50:17;;;;;;;43.80;29.40;;;5.90;73.50;;;;;;5056785;28;20104;-78
2021/12/12 03:52:43;;;;;;;42.78;28.48;;;5.90;73.60;;;;;;5052755;28;20032;-78
2021/12/12 03:55:10;;;;;;;43.10;29.48;;;5.90;73.40;;;;;;5067009;28;20469;-78
2021/12/12 03:57:36;;;;;;;44.10;29.45;;;5.90;73.30;;;;;;5069867;28;20689;-78
2021/12/12 04:00:05;;;;;;;42.60;28.77;;;6.00;73.40;;;;;;5060228;28;20021;-79
2021/12/12 04:02:31;;;;;;;37.33;27.90;;;6.00;73.40;;;;;;5054282;28;20032;-78
2021/12/12 04:04:57;;;;;;;40.58;28.77;;;6.00;73.30;;;;;;5071903;28;20036;-78
2021/12/12 04:07:28;;;;;;;34.85;25.10;;;6.00;73.30;;;;;;5072803;28;20055;-78
2021/12/12 04:09:56;;;;;;;35.67;25.92;;;6.00;73.20;;;;;;5073398;28;20016;-78
2021/12/12 04:12:22;;;;;;;34.08;24.63;;;6.00;73.20;;;;;;5065657;28;20082;-81
2021/12/12 04:14:51;;;;;;;36.83;26.13;;;6.00;73.20;;;;;;5056922;28;20091;-81
2021/12/12 04:17:21;;;;;;;36.40;26.00;;;6.00;73.40;;;;;;5052416;28;20025;-81
2021/12/12 04:19:51;;;;;;;33.22;23.38;;;5.90;73.30;;;;;;5054540;28;20029;-81
2021/12/12 04:22:17;;;;;;;36.95;25.92;;;5.90;73.20;;;;;;5064607;28;20032;-81
2021/12/12 04:24:45;;;;;;;44.47;27.70;;;5.90;73.40;;;;;;5056311;28;20029;-81
2021/12/12 04:27:12;;;;;;;34.75;25.38;;;5.90;73.70;;;;;;5053224;28;20033;-81
2021/12/12 04:29:43;;;;;;;36.88;26.30;;;5.90;73.60;;;;;;5063327;28;20040;-81
2021/12/12 04:32:13;;;;;;;35.55;25.05;;;5.90;73.50;;;;;;5058161;28;20029;-81
2021/12/12 04:34:40;;;;;;;;;;;6.00;73.50;;;;;;5055368;28;20037;-80
2021/12/12 04:37:07;;;;;;;29.08;21.92;;;6.00;73.20;;;;;;5053566;28;19908;-80
2021/12/12 04:39:37;;;;;;;31.13;22.48;;;6.00;73.10;;;;;;5056568;28;20040;-80
2021/12/12 04:42:29;;;;;;;34.08;23.73;;;6.00;72.90;;;;;;5062706;28;20498;-80
2021/12/12 04:45:17;;;;;;;31.25;22.38;;;6.00;72.90;;;;;;5061122;28;20033;-80
2021/12/12 04:51:04;;;;;;;33.47;24.13;;;6.00;73.10;;;;;;5048919;28;20075;-79
2021/12/12 04:53:45;;;;;;;34.97;24.30;;;6.00;73.20;;;;;;5057827;28;20435;-79
2021/12/12 04:56:19;;;;;;;43.15;29.10;;;6.00;73.10;;;;;;5052754;28;20425;-79
2021/12/12 04:59:06;;;;;;;30.55;21.98;;;5.80;72.20;;;;;;5061447;28;20025;-79
2021/12/12 05:01:48;;;;;;;38.17;26.27;;;5.50;73.50;;;;;;5051831;28;20119;-79
2021/12/12 05:04:18;;;;;;;29.90;21.55;;;5.40;73.90;;;;;;5053257;28;20359;-80
2021/12/12 05:06:57;;;;;;;31.00;23.30;;;5.30;74.40;;;;;;5051599;28;20083;-82
2021/12/12 05:09:39;;;;;;;34.10;22.23;;;5.30;74.40;;;;;;5063566;28;20113;-82
2021/12/12 05:12:13;;;;;;;33.47;24.60;;;5.30;74.50;;;;;;5055208;28;20040;-81
2021/12/12 05:14:45;;;;;;;38.58;25.40;;;5.40;74.70;;;;;;5053045;28;20021;-81
2021/12/12 05:17:22;;;;;;;38.65;25.55;;;5.40;74.70;;;;;;5066937;28;20563;-81
2021/12/12 05:19:55;;;;;;;31.27;21.63;;;5.50;74.50;;;;;;5056234;28;20029;-82
2021/12/12 05:22:30;;;;;;;33.50;22.75;;;5.60;74.00;;;;;;5052176;28;20401;-82
2021/12/12 05:25:01;;;;;;;29.75;21.52;;;5.60;73.50;;;;;;5060202;28;20139;-82
2021/12/12 05:27:29;;;;;;;34.90;23.30;;;5.70;73.30;;;;;;5051705;28;20138;-82
2021/12/12 05:29:58;;;;;;;31.98;21.50;;;5.70;73.20;;;;;;5065213;28;20028;-82
2021/12/12 05:32:25;;;;;;;30.45;20.20;;;5.70;72.80;;;;;;5054696;28;20044;-82
2021/12/12 05:34:54;;;;;;;31.20;21.65;;;5.70;72.60;;;;;;5065285;28;20037;-82
2021/12/12 05:37:21;;;;;;;27.65;20.73;;;5.70;72.70;;;;;;5065443;28;20020;-82
2021/12/12 05:39:48;;;;;;;30.30;21.95;;;5.80;72.80;;;;;;5071108;28;20031;-82
2021/12/12 05:42:15;;;;;;;29.88;20.83;;;5.80;73.00;;;;;;5054092;28;20021;-82
2021/12/12 05:44:42;;;;;;;27.48;19.50;;;5.70;72.30;;;;;;5070022;28;20218;-82
2021/12/12 05:47:09;;;;;;;27.65;19.42;;;5.60;71.90;;;;;;5059771;28;20045;-82
2021/12/12 05:49:37;;;;;;;27.33;19.55;;;5.60;72.20;;;;;;5053835;28;20424;-82
2021/12/12 05:52:08;;;;;;;30.83;19.42;;;5.60;72.10;;;;;;5055865;28;20554;-82
2021/12/12 05:54:34;;;;;;;28.58;20.23;;;5.60;71.90;;;;;;5052384;28;20021;-81
2021/12/12 05:57:01;;;;;;;29.75;19.80;;;5.60;71.90;;;;;;5059875;28;20024;-81
2021/12/12 05:59:27;;;;;;;31.33;19.92;;;5.60;72.10;;;;;;5068583;28;20095;-81
2021/12/12 06:01:55;;;;;;;28.23;19.35;;;5.60;71.80;;;;;;5060377;28;20070;-80
2021/12/12 06:04:21;;;;;;;28.95;19.73;;;5.70;71.30;;;;;;5052606;28;20025;-81
2021/12/12 06:06:47;;;;;;;26.80;19.40;;;5.70;71.10;;;;;;5056789;28;20401;-81
2021/12/12 06:09:15;;;;;;;26.70;19.08;;;5.70;71.00;;;;;;5051026;28;20416;-81
2021/12/12 06:11:44;;;;;;;27.55;18.83;;;5.70;71.10;;;;;;5051945;28;20029;-81
2021/12/12 06:14:11;;;;;;;27.27;19.27;;;5.70;71.00;;;;;;5055561;28;20034;-82
2021/12/12 06:16:38;;;;;;;22.52;17.23;;;5.70;70.80;;;;;;5060548;28;20021;-83
2021/12/12 06:19:24;;;;;;;23.63;17.23;;;5.70;70.60;;;;;;5052701;28;20033;-81
2021/12/12 06:21:53;;;;;;;27.70;18.20;;;5.70;70.60;;;;;;5054600;28;20025;-82
2021/12/12 06:24:20;;;;;;;24.20;17.30;;;5.70;70.40;;;;;;5052040;28;20033;-82
2021/12/12 06:26:46;;;;;;;21.50;16.40;;;5.60;70.30;;;;;;5052970;28;20035;-82
2021/12/12 06:29:12;;;;;;;23.48;18.15;;;5.60;70.40;;;;;;5055424;28;20143;-82
2021/12/12 06:31:42;;;;;;;21.60;16.73;;;5.60;70.40;;;;;;5057020;28;20032;-82
2021/12/12 06:34:09;;;;;;;25.50;18.20;;;5.60;70.20;;;;;;5059932;28;20120;-81
2021/12/12 06:36:36;;;;;;;23.73;16.98;;;5.60;70.20;;;;;;5050911;28;20033;-81
2021/12/12 06:39:06;;;;;;;27.45;17.27;;;5.60;70.20;;;;;;5054622;28;20489;-81
2021/12/12 06:41:33;;;;;;;25.48;17.02;;;5.60;70.60;;;;;;5054663;28;20025;-80
2021/12/12 06:44:03;;;;;;;22.75;16.52;;;5.60;70.80;;;;;;5060837;28;20040;-80
2021/12/12 06:46:29;;;;;;;22.70;16.27;;;5.60;70.70;;;;;;5059747;28;20041;-80
2021/12/12 06:48:55;;;;;;;25.95;17.83;;;5.60;70.40;;;;;;5052815;28;20025;-80
2021/12/12 06:51:21;;;;;;;23.25;16.75;;;5.60;70.30;;;;;;5056588;28;20021;-80
2021/12/12 06:53:48;;;;;;;25.23;17.75;;;5.60;70.20;;;;;;5061774;28;20029;-80
2021/12/12 06:56:17;;;;;;;24.48;17.10;;;5.60;70.20;;;;;;5054962;28;20021;-81
2021/12/12 06:58:44;;;;;;;23.92;17.33;;;5.60;70.40;;;;;;5054585;28;20124;-81
2021/12/12 07:01:16;;;;;;;24.42;18.35;;;5.60;70.10;;;;;;5053046;28;20029;-81
2021/12/12 07:03:46;;;;;;;21.88;16.52;;;5.60;70.20;;;;;;5050713;28;20025;-80
2021/12/12 07:06:13;;;;;;;25.20;17.30;;;5.60;70.20;;;;;;5053218;28;20107;-77
2021/12/12 07:08:39;;;;;;;25.35;17.13;;;5.60;70.50;;;;;;5049917;28;20033;-77
2021/12/12 07:11:05;;;;;;;21.35;15.93;;;5.60;70.80;;;;;;5053416;28;20484;-78
2021/12/12 07:13:31;;;;;;;20.83;16.10;;;5.60;70.70;;;;;;5054454;28;20051;-77
2021/12/12 07:16:01;;;;;;;22.08;16.15;;;5.70;70.40;;;;;;5052919;28;20029;-77
2021/12/12 07:18:29;;;;;;;21.90;14.60;;;5.70;70.00;;;;;;5047304;28;20029;-78
2021/12/12 07:20:59;;;;;;;23.92;16.42;;;5.60;69.80;;;;;;5051936;28;20048;-78
2021/12/12 07:23:25;;;;;;;23.83;16.17;;;5.60;70.10;;;;;;5048094;28;20033;-77
2021/12/12 07:25:52;;;;;;;23.52;16.65;;;5.60;70.40;;;;;;5043658;28;20359;-78
2021/12/12 07:28:18;;;;;;;22.13;15.30;;;5.60;70.30;;;;;;5050075;28;20032;-81
2021/12/12 07:30:45;;;;;;;22.33;15.35;;;5.70;70.10;;;;;;5050570;28;20032;-81
2021/12/12 07:33:12;;;;;;;22.50;16.33;;;5.70;70.10;;;;;;5052284;28;20033;-83
2021/12/12 07:35:42;;;;;;;21.80;14.50;;;5.70;70.10;;;;;;5052586;28;20041;-81
2021/12/12 07:38:10;;;;;;;19.23;13.55;;;5.80;70.90;;;;;;5050888;28;20021;-81
2021/12/12 07:40:37;;;;;;;20.77;15.75;;;5.80;70.10;;;;;;5046022;28;20032;-90
2021/12/12 07:43:04;;;;;;;19.25;14.68;;;5.90;70.30;;;;;;5047095;28;20025;-84
2021/12/12 07:45:32;;;;;;;23.67;16.42;;;5.90;70.50;;;;;;5048309;28;20446;-81
2021/12/12 07:47:57;;;;;;;21.33;16.15;;;5.90;69.90;;;;;;5050310;28;20040;-84
2021/12/12 07:50:27;;;;;;;23.55;17.33;;;5.90;69.60;;;;;;5054129;28;20112;-83
2021/12/12 07:52:53;;;;;;;26.55;17.15;;;6.00;69.50;;;;;;5051996;28;20025;-82
2021/12/12 07:55:19;;;;;;;21.55;15.32;;;6.00;69.30;;;;;;5048646;28;20085;-82
2021/12/12 07:57:45;;;;;;;22.40;15.88;;;6.00;69.30;;;;;;5052779;28;20391;-77
2021/12/12 08:00:24;;;;;;;23.33;15.98;;;6.00;69.20;;;;;;5052880;28;20029;-77
2021/12/12 08:02:53;;;;;;;21.45;14.93;;;6.10;69.40;;;;;;5064963;28;20093;-77
2021/12/12 08:05:20;;;;;;;20.83;14.75;;;6.10;69.30;;;;;;5063160;28;20115;-77
2021/12/12 08:07:46;;;;;;;23.95;15.35;;;6.10;69.00;;;;;;5053006;28;20512;-81
2021/12/12 08:10:15;;;;;;;19.80;14.13;;;6.10;68.60;;;;;;5054057;28;20032;-82
2021/12/12 08:12:42;;;;;;;21.63;15.40;;;6.10;68.70;;;;;;5048247;28;20060;-84
2021/12/12 08:15:10;;;;;;;20.75;14.75;;;6.20;69.30;;;;;;5053597;28;20432;-85
2021/12/12 08:17:36;;;;;;;20.90;15.20;;;6.20;69.80;;;;;;5054113;28;20376;-85
2021/12/12 08:20:05;;;;;;;24.42;14.88;;;6.20;69.70;;;;;;5045962;28;20092;-85
2021/12/12 08:22:31;;;;;;;20.30;14.50;;;6.30;69.80;;;;;;5058410;28;20056;-76
2021/12/12 08:24:59;;;;;;;18.98;14.00;;;6.30;69.50;;;;;;5067056;28;20353;-76
2021/12/12 08:27:26;;;;;;;18.92;14.63;;;6.40;69.30;;;;;;5045565;28;20036;-77
2021/12/12 08:29:52;;;;;;;21.42;15.75;;;6.50;69.30;;;;;;5051806;28;20066;-77
2021/12/12 08:32:18;;;;;;;22.05;15.63;;;6.60;69.30;;;;;;5053057;28;20145;-77
2021/12/12 08:34:45;;;;;;;21.92;15.65;;;6.70;69.80;;;;;;5041104;28;20050;-77
2021/12/12 13:52:23;;;;;;;9.68;6.47;;;15.70;36.90;;;;;;5282697;22;20542;-80
2021/12/12 13:55:04;;;;;;;10.32;6.35;;;15.50;37.60;;;;;;5072290;28;20458;-80
2021/12/12 13:57:50;;;;;;;8.50;5.88;;;15.40;38.70;;;;;;5053502;28;20502;-80
2021/12/12 14:00:24;;;;;;;11.80;6.90;;;15.20;39.70;;;;;;5072423;28;20074;-80
2021/12/12 14:03:20;;;;;;;8.02;6.63;;;15.10;40.00;;;;;;5071294;28;20021;-79
2021/12/12 14:05:50;;;;;;;10.75;6.18;;;14.90;39.50;;;;;;5041550;28;20044;-80
2021/12/12 14:08:23;;;;;;;6.70;5.50;;;14.80;39.40;;;;;;5066831;28;20032;-80
2021/12/12 14:10:57;;;;;;;7.13;5.15;;;14.70;38.70;;;;;;5071154;28;20032;-81
2021/12/12 14:13:29;;;;;;;6.60;5.15;;;14.60;38.60;;;;;;5069137;28;20161;-81
2021/12/12 14:16:01;;;;;;;6.85;5.38;;;14.50;38.60;;;;;;5056645;28;20012;-81
2021/12/12 14:18:34;;;;;;;7.45;5.68;;;14.40;38.50;;;;;;5076378;28;20035;-81
2021/12/12 14:21:01;;;;;;;9.38;5.60;;;14.40;38.30;;;;;;5072261;28;20021;-81
2021/12/12 14:23:31;;;;;;;12.70;6.10;;;14.30;38.80;;;;;;5072217;28;20013;-79
2021/12/12 14:26:03;;;;;;;;;;;14.20;39.30;;;;;;5072426;28;20099;-79
2021/12/12 14:28:32;;;;;;;10.38;6.90;;;14.20;40.00;;;;;;5072480;28;19916;-79
2021/12/12 14:30:58;;;;;;;13.98;10.15;;;14.10;40.60;;;;;;5072998;28;20024;-79
2021/12/12 14:33:28;;;;;;;16.60;11.38;;;14.00;42.10;;;;;;5068106;28;20058;-79
2021/12/12 14:36:00;;;;;;;15.10;11.77;;;13.90;43.50;;;;;;5072266;28;20040;-79
2021/12/12 14:38:27;;;;;;;18.08;12.23;;;13.90;44.90;;;;;;5069293;28;20043;-78
2021/12/12 14:40:56;;;;;;;14.93;11.65;;;13.80;46.10;;;;;;5072173;28;20512;-79
2021/12/12 14:43:45;;;;;;;14.57;11.75;;;13.80;47.00;;;;;;5070753;28;20028;-80
2021/12/12 14:46:32;;;;;;;15.65;12.05;;;13.70;48.00;;;;;;5046092;28;20062;-79
2021/12/12 14:49:08;;;;;;;13.90;11.93;;;13.70;49.00;;;;;;5063558;28;20036;-79
2021/12/12 14:51:54;;;;;;;15.43;11.02;;;13.60;49.70;;;;;;5057339;28;20098;-79
2021/12/12 14:54:23;;;;;;;15.32;11.25;;;13.50;50.10;;;;;;5075611;28;20033;-78
2021/12/12 14:56:56;;;;;;;14.65;11.18;;;13.40;50.70;;;;;;5075575;28;20134;-78
2021/12/12 14:59:28;;;;;;;12.45;10.57;;;13.40;51.50;;;;;;5075292;28;20024;-78
2021/12/12 15:02:16;;;;;;;12.02;10.30;;;13.30;52.00;;;;;;5079309;28;20056;-79
2021/12/12 15:04:57;;;;;;;10.20;8.45;;;13.20;51.00;;;;;;5070376;28;20024;-78
2021/12/12 15:07:23;;;;;;;;;;;13.20;50.80;;;;;;5057609;28;20031;-79
2021/12/12 15:10:04;;;;;;;10.52;8.05;;;13.10;50.40;;;;;;5073167;28;20003;-78
2021/12/12 15:12:35;;;;;;;10.77;8.48;;;13.10;50.50;;;;;;5075064;28;20028;-78
2021/12/12 15:15:10;;;;;;;12.95;9.38;;;13.00;51.10;;;;;;5046477;28;20049;-78
2021/12/12 15:17:37;;;;;;;13.15;10.75;;;12.80;51.90;;;;;;5057468;28;20555;-78
2021/12/12 15:20:10;;;;;;;13.80;11.18;;;12.80;52.90;;;;;;5057060;28;20047;-78
2021/12/12 15:22:42;;;;;;;13.13;11.45;;;12.70;54.00;;;;;;5074277;28;20025;-78
2021/12/12 15:25:15;;;;;;;14.00;12.00;;;12.60;54.90;;;;;;5074885;28;20029;-78
2021/12/12 15:27:45;;;;;;;13.60;11.73;;;12.60;55.50;;;;;;5075189;28;20029;-78
2021/12/12 15:30:22;;;;;;;13.63;11.82;;;12.50;56.10;;;;;;5074943;28;20392;-79
2021/12/12 15:32:53;;;;;;;15.90;12.68;;;12.50;56.80;;;;;;5065790;28;20029;-79
2021/12/12 15:35:22;;;;;;;13.80;12.23;;;12.40;57.20;;;;;;5074619;28;20111;-79
2021/12/12 15:37:48;;;;;;;14.65;13.07;;;12.30;57.90;;;;;;5074963;28;20122;-79
2021/12/12 15:40:26;;;;;;;15.35;13.18;;;12.20;58.40;;;;;;5074563;28;20028;-79
2021/12/12 15:43:02;;;;;;;16.00;13.32;;;12.10;59.00;;;;;;5056655;28;20074;-78
2021/12/12 15:45:40;;;;;;;16.63;13.65;;;12.10;59.50;;;;;;5074301;28;20033;-78
2021/12/12 15:48:14;;;;;;;14.65;13.07;;;12.10;59.70;;;;;;5074367;28;20029;-79
2021/12/12 15:50:40;;;;;;;15.35;12.32;;;12.00;60.00;;;;;;5074635;28;20048;-79
2021/12/12 15:53:17;;;;;;;15.50;12.93;;;12.00;60.40;;;;;;5074160;28;20025;-79
2021/12/12 15:55:56;;;;;;;17.23;13.35;;;12.00;60.70;;;;;;5074147;28;20028;-79
2021/12/12 15:58:29;;;;;;;15.32;13.27;;;12.00;60.70;;;;;;5071814;28;20475;-79
2021/12/12 16:01:24;;;;;;;18.17;13.90;;;11.90;60.70;;;;;;5074133;28;20036;-79
2021/12/12 16:03:53;;;;;;;14.85;13.13;;;11.90;60.90;;;;;;5067587;28;20045;-79
2021/12/12 16:06:30;;;;;;;14.90;12.65;;;11.80;61.40;;;;;;5056344;28;20032;-78
2021/12/12 16:08:58;;;;;;;15.38;13.27;;;11.70;61.70;;;;;;5063442;28;20036;-78
2021/12/12 16:11:26;;;;;;;15.38;12.38;;;11.70;62.10;;;;;;5050630;28;20029;-78
2021/12/12 16:13:55;;;;;;;14.95;12.43;;;11.60;62.30;;;;;;5073823;28;20037;-78
2021/12/12 16:16:27;;;;;;;15.07;12.48;;;11.60;62.30;;;;;;5065324;28;20384;-78
2021/12/12 16:19:06;;;;;;;17.83;13.05;;;11.40;62.60;;;;;;5065620;28;20031;-79
2021/12/12 16:21:33;;;;;;;17.45;13.68;;;11.30;63.10;;;;;;5065569;28;20037;-79
2021/12/12 16:24:03;;;;;;;18.70;13.38;;;11.30;63.40;;;;;;5068566;28;20037;-79
2021/12/12 16:26:40;;;;;;;16.95;13.68;;;11.30;63.70;;;;;;5066800;28;20055;-81
2021/12/12 16:29:10;;;;;;;15.02;13.43;;;11.30;63.70;;;;;;5064523;28;20109;-81
2021/12/12 16:31:36;;;;;;;16.75;13.82;;;11.20;63.60;;;;;;5066667;28;20079;-81
2021/12/12 16:34:13;;;;;;;16.77;14.20;;;11.20;63.60;;;;;;5068877;28;20484;-81
2021/12/12 16:36:44;;;;;;;15.70;13.68;;;11.20;63.70;;;;;;5068852;28;20029;-81
2021/12/12 16:39:15;;;;;;;15.48;13.68;;;11.10;63.80;;;;;;5068237;28;20032;-81
2021/12/12 16:41:47;;;;;;;19.10;13.95;;;11.10;63.90;;;;;;5069626;28;20066;-81
2021/12/12 16:44:20;;;;;;;16.52;14.27;;;11.00;63.90;;;;;;5069735;28;20088;-81
2021/12/12 16:46:48;;;;;;;18.77;15.20;;;10.90;64.10;;;;;;5067540;28;20040;-81
2021/12/12 16:49:21;;;;;;;15.70;13.05;;;10.90;64.40;;;;;;5069938;28;20028;-79
2021/12/12 16:51:54;;;;;;;17.65;14.48;;;10.90;64.70;;;;;;5062976;28;20083;-79
2021/12/12 16:54:39;;;;;;;17.95;14.73;;;10.90;64.90;;;;;;5062891;28;20497;-79
2021/12/12 16:57:13;;;;;;;18.45;14.70;;;10.80;65.00;;;;;;5062526;28;20040;-79
2021/12/12 16:59:44;;;;;;;16.58;14.40;;;10.80;65.10;;;;;;5068978;28;20043;-79
2021/12/12 17:02:19;;;;;;;16.92;14.07;;;10.70;65.30;;;;;;5066745;28;20038;-79
2021/12/12 17:04:49;;;;;;;19.88;15.05;;;10.70;65.50;;;;;;5070002;28;20055;-79
2021/12/12 17:07:20;;;;;;;18.52;15.02;;;10.70;65.60;;;;;;5068794;28;20043;-79
2021/12/12 17:09:48;;;;;;;17.90;14.70;;;10.70;65.80;;;;;;5068245;28;20108;-79
2021/12/12 17:12:37;;;;;;;19.48;15.48;;;10.70;65.90;;;;;;5067877;28;20032;-78
2021/12/12 17:15:22;;;;;;;17.58;14.70;;;10.60;66.10;;;;;;5068401;28;20303;-80
2021/12/12 17:18:17;;;;;;;18.55;14.90;;;10.60;66.30;;;;;;5068961;28;20036;-81
2021/12/12 17:20:53;;;;;;;16.98;14.52;;;10.60;66.40;;;;;;5067601;28;20499;-81
2021/12/12 17:23:22;;;;;;;16.65;14.20;;;10.50;66.60;;;;;;5067068;28;20039;-81
2021/12/12 17:25:51;;;;;;;17.45;14.30;;;10.40;66.90;;;;;;5070130;28;20170;-81
2021/12/12 17:28:20;;;;;;;17.73;14.93;;;10.40;67.00;;;;;;5068884;28;20039;-81
2021/12/12 17:31:01;;;;;;;19.83;15.43;;;10.40;67.20;;;;;;5049328;28;20369;-81
2021/12/12 17:33:29;;;;;;;19.17;14.43;;;10.30;67.30;;;;;;5069659;28;20031;-81
2021/12/12 17:36:02;;;;;;;17.75;14.73;;;10.30;67.50;;;;;;5051714;28;20032;-81
2021/12/12 17:38:39;;;;;;;19.65;14.10;;;10.30;67.70;;;;;;5070110;28;20554;-81
2021/12/12 17:41:23;;;;;;;19.35;14.93;;;10.20;67.90;;;;;;5070019;28;20119;-81
2021/12/12 17:44:22;;;;;;;18.02;14.48;;;10.20;68.10;;;;;;5052075;28;20033;-81
2021/12/12 17:47:02;;;;;;;19.63;15.48;;;10.10;68.10;;;;;;5069497;28;20052;-81
2021/12/12 17:49:46;;;;;;;;;;;10.10;69.00;;;;;;5069340;28;20537;-81
2021/12/12 17:52:32;;;;;;;20.52;16.35;;;10.10;68.70;;;;;;5050523;28;20268;-81
2021/12/12 17:55:15;;;;;;;19.27;15.80;;;10.00;69.00;;;;;;5011988;28;20029;-82
2021/12/12 17:57:43;;;;;;;21.20;16.27;;;10.00;69.00;;;;;;5069148;28;20506;-81
2021/12/12 18:00:44;;;;;;;21.08;16.73;;;10.00;69.20;;;;;;5066361;28;20024;-81
2021/12/12 18:03:16;;;;;;;20.20;15.85;;;9.90;69.30;;;;;;5052632;28;20496;-81
2021/12/12 18:05:58;;;;;;;19.50;16.30;;;9.90;69.30;;;;;;5068755;28;20039;-81
2021/12/12 18:08:48;;;;;;;20.42;16.48;;;9.90;69.40;;;;;;5066450;28;20570;-82
2021/12/12 18:11:14;;;;;;;23.30;17.85;;;9.80;69.60;;;;;;5049907;28;20177;-83
2021/12/12 18:13:43;;;;;;;21.58;17.75;;;9.80;69.40;;;;;;5067070;28;20032;-82
2021/12/12 18:16:10;;;;;;;22.52;17.48;;;9.80;69.50;;;;;;5064134;28;20035;-82
2021/12/12 18:19:00;;;;;;;22.23;18.20;;;9.70;69.50;;;;;;5049652;28;20036;-83
2021/12/12 18:21:40;;;;;;;20.15;16.83;;;9.70;69.60;;;;;;5066585;28;20487;-83
2021/12/12 18:24:11;;;;;;;;;;;9.70;69.80;;;;;;5075867;28;20078;-83
2021/12/12 18:27:00;;;;;;;22.80;17.83;;;9.60;70.00;;;;;;5056603;28;19908;-82
2021/12/12 18:29:52;;;;;;;23.13;18.00;;;9.60;70.20;;;;;;5057302;28;20032;-86
2021/12/12 18:32:43;;;;;;;24.88;19.27;;;9.60;70.40;;;;;;5055706;28;20032;-83
2021/12/12 18:35:20;;;;;;;23.92;18.25;;;9.50;70.50;;;;;;5057346;28;20070;-84